Time;durP1;ratioP1;P1;durP2;ratioP2;P2;SDS_P1;SDS_P2;PMS_P1;PMS_P2;Temp;Humidity;BMP_temperature;BMP_pressure;BME280_temperature;BME280_humidity;BME280_pressure;Samples;Min_cycle;Max_cycle;Signal;HPM_P1;HPM_P2
2023/07/30 00:01:21;;;;;;;12.40;2.90;;;;;;;21.47;66.47;100944.81;5011351;28;20522;-46
2023/07/30 00:03:47;;;;;;;11.45;2.63;;;;;;;21.51;66.64;100944.66;5012448;28;20036;-44
2023/07/30 00:06:12;;;;;;;19.20;3.50;;;;;;;21.37;67.51;100941.56;5012607;28;20042;-42
2023/07/30 00:08:37;;;;;;;17.42;3.10;;;;;;;21.44;67.55;100945.75;5012317;28;20548;-44
2023/07/30 00:11:03;;;;;;;18.35;3.00;;;;;;;21.65;66.65;100950.41;5012280;28;20030;-43
2023/07/30 00:13:28;;;;;;;15.63;3.00;;;;;;;21.44;67.15;100943.09;5011973;28;20045;-47
2023/07/30 00:15:54;;;;;;;15.95;2.97;;;;;;;21.77;65.98;100944.69;5011965;28;20034;-45
2023/07/30 00:18:19;;;;;;;16.65;3.05;;;;;;;21.60;66.90;100935.53;5011403;28;20030;-43
2023/07/30 00:20:44;;;;;;;13.70;3.10;;;;;;;21.72;66.36;100943.13;5011844;28;20038;-48
2023/07/30 00:23:10;;;;;;;15.30;3.10;;;;;;;21.83;65.98;100946.31;5011503;28;20539;-42
2023/07/30 00:25:35;;;;;;;16.33;3.20;;;;;;;21.86;65.61;100949.75;5011918;28;20149;-43
2023/07/30 00:28:01;;;;;;;12.65;2.75;;;;;;;21.90;65.79;100950.50;5012431;28;20088;-43
2023/07/30 00:30:26;;;;;;;14.20;3.22;;;;;;;21.90;65.93;100954.94;5011260;28;20552;-43
2023/07/30 00:32:51;;;;;;;16.25;3.00;;;;;;;21.75;66.29;100961.59;5010222;28;20034;-44
2023/07/30 00:35:17;;;;;;;15.65;3.28;;;;;;;21.67;67.15;100953.00;5011932;28;20037;-45
2023/07/30 00:37:42;;;;;;;15.90;3.42;;;;;;;21.72;67.00;100951.94;5011210;28;20489;-45
2023/07/30 00:40:09;;;;;;;16.20;3.15;;;;;;;21.79;66.43;100964.13;5011416;28;20050;-42
2023/07/30 00:42:34;;;;;;;15.35;2.88;;;;;;;21.76;66.51;100964.22;5010854;28;20131;-43
2023/07/30 00:45:00;;;;;;;12.95;2.75;;;;;;;21.82;66.49;100963.16;5011674;28;20037;-51
2023/07/30 00:47:26;;;;;;;14.35;2.85;;;;;;;21.88;66.12;100970.94;5010519;28;20041;-46
2023/07/30 00:49:52;;;;;;;15.30;2.95;;;;;;;21.87;66.06;100977.16;5011555;28;20057;-44
2023/07/30 00:52:20;;;;;;;14.98;3.05;;;;;;;21.96;66.21;100973.34;5011080;28;20702;-46
2023/07/30 00:54:48;;;;;;;13.73;2.90;;;;;;;21.78;66.79;100967.69;5010818;28;20033;-44
2023/07/30 00:57:14;;;;;;;18.77;3.38;;;;;;;21.80;67.14;100972.94;5011164;28;20030;-42
2023/07/30 00:59:40;;;;;;;13.50;2.60;;;;;;;22.07;66.44;100966.81;5009104;28;20042;-44
2023/07/30 01:02:05;;;;;;;16.60;2.83;;;;;;;22.01;66.78;100974.97;5011017;28;20037;-44
2023/07/30 01:04:31;;;;;;;14.23;2.83;;;;;;;22.08;66.41;100973.00;5010754;28;20038;-47
2023/07/30 01:06:56;;;;;;;11.73;2.72;;;;;;;22.03;66.46;100972.25;5011238;28;20504;-43
2023/07/30 01:09:22;;;;;;;16.48;2.90;;;;;;;22.18;66.24;100974.41;5010655;28;20527;-47
2023/07/30 01:11:48;;;;;;;16.35;3.33;;;;;;;22.14;66.14;100973.63;5010911;28;20381;-45
2023/07/30 01:14:14;;;;;;;17.08;3.17;;;;;;;22.16;66.31;100979.78;5011079;28;20057;-42
2023/07/30 01:16:40;;;;;;;21.88;3.58;;;;;;;22.12;66.22;100975.50;5010761;28;20117;-43
2023/07/30 01:19:07;;;;;;;21.42;2.97;;;;;;;21.67;68.29;100976.88;5011518;28;20033;-42
2023/07/30 01:21:34;;;;;;;14.48;2.63;;;;;;;22.21;66.58;100976.94;5010364;28;20045;-45
2023/07/30 01:23:59;;;;;;;18.65;3.00;;;;;;;22.04;66.71;100974.84;5011825;28;20038;-44
2023/07/30 01:26:30;;;;;;;15.65;3.00;;;;;;;22.08;66.68;100983.59;5013841;28;20056;-44
2023/07/30 01:29:00;;;;;;;19.08;3.08;;;;;;;22.00;67.34;100978.53;5011626;28;20424;-43
2023/07/30 01:31:26;;;;;;;20.00;3.53;;;;;;;21.86;67.69;100978.06;5011013;28;20115;-43
2023/07/30 01:33:55;;;;;;;15.57;3.10;;;;;;;21.98;66.98;100977.72;5011783;28;20683;-43
2023/07/30 01:36:21;;;;;;;18.50;2.90;;;;;;;21.75;67.78;100978.41;5012015;28;20044;-45
2023/07/30 01:38:47;;;;;;;15.77;3.03;;;;;;;22.05;67.19;100986.34;5011671;28;20034;-47
2023/07/30 01:41:13;;;;;;;21.75;3.25;;;;;;;21.98;66.84;100983.00;5026828;28;20431;-48
2023/07/30 01:43:38;;;;;;;15.75;2.85;;;;;;;22.00;67.31;100983.84;5010457;28;20182;-46
2023/07/30 01:46:04;;;;;;;13.27;2.80;;;;;;;22.05;66.63;100981.03;5011128;28;20030;-43
2023/07/30 01:48:29;;;;;;;15.57;3.22;;;;;;;21.98;66.95;100996.28;5010210;28;20036;-43
2023/07/30 01:50:54;;;;;;;18.13;3.15;;;;;;;21.83;67.47;100984.31;5009910;28;20030;-40
2023/07/30 01:53:20;;;;;;;17.27;3.15;;;;;;;21.97;67.12;100983.06;5010509;28;20044;-42
2023/07/30 01:55:46;;;;;;;18.80;3.05;;;;;;;21.64;68.28;100992.91;5009804;28;20546;-49
2023/07/30 01:58:12;;;;;;;17.27;3.08;;;;;;;21.62;68.47;100997.38;5010308;28;20034;-47
2023/07/30 02:00:38;;;;;;;15.90;3.17;;;;;;;21.94;67.70;100989.31;5009543;28;20052;-42
2023/07/30 02:03:04;;;;;;;13.25;2.60;;;;;;;22.00;67.06;100994.47;5009724;28;20038;-45
2023/07/30 02:05:30;;;;;;;15.82;2.70;;;;;;;21.77;67.93;100989.81;5024767;28;20044;-45
2023/07/30 02:07:55;;;;;;;16.23;2.80;;;;;;;21.71;68.20;100986.50;5010011;28;20048;-47
2023/07/30 02:10:20;;;;;;;16.38;3.05;;;;;;;22.01;66.96;100984.72;5010526;28;20033;-43
2023/07/30 02:12:46;;;;;;;14.75;3.03;;;;;;;21.91;67.22;100985.88;5009503;28;20485;-46
2023/07/30 02:15:11;;;;;;;16.00;2.90;;;;;;;22.14;66.47;100983.41;5010408;28;20034;-43
2023/07/30 02:17:36;;;;;;;16.70;2.53;;;;;;;21.94;67.02;100994.63;5009784;28;20122;-47
2023/07/30 02:20:02;;;;;;;18.75;3.00;;;;;;;21.85;67.29;100992.25;5009950;28;20050;-42
2023/07/30 02:22:28;;;;;;;13.57;2.92;;;;;;;22.08;66.46;100986.25;5009825;28;20508;-42
2023/07/30 02:24:53;;;;;;;16.52;3.10;;;;;;;21.95;66.88;100979.56;5012563;28;20034;-46
2023/07/30 02:27:18;;;;;;;14.07;2.67;;;;;;;22.05;66.62;100978.38;5012384;28;20038;-46
2023/07/30 02:29:44;;;;;;;15.45;3.05;;;;;;;22.11;66.54;100976.41;5009528;28;20030;-42
2023/07/30 02:32:09;;;;;;;13.05;2.80;;;;;;;22.20;65.75;100980.56;5009393;28;20124;-45
2023/07/30 02:34:34;;;;;;;16.23;2.60;;;;;;;22.08;66.14;100980.94;5009252;28;20118;-43
2023/07/30 02:37:00;;;;;;;14.18;3.05;;;;;;;21.99;66.54;100978.56;5009718;28;20458;-43
2023/07/30 02:39:25;;;;;;;14.93;2.80;;;;;;;22.06;66.60;100983.66;5009191;28;20073;-47
2023/07/30 02:41:50;;;;;;;14.20;3.05;;;;;;;21.93;66.83;100981.41;5009807;28;20038;-43
2023/07/30 02:44:15;;;;;;;12.75;2.67;;;;;;;22.02;66.31;100986.44;5009949;28;20088;-44
2023/07/30 02:46:41;;;;;;;13.27;2.90;;;;;;;22.08;66.61;100978.31;5009798;28;20064;-45
2023/07/30 02:49:06;;;;;;;11.48;2.65;;;;;;;21.86;66.84;100975.41;5010122;28;20134;-43
2023/07/30 02:51:32;;;;;;;13.07;2.85;;;;;;;22.11;66.48;100968.44;5008466;28;20045;-43
2023/07/30 02:53:59;;;;;;;13.82;2.63;;;;;;;22.01;66.47;100971.44;5009861;28;20081;-45
2023/07/30 02:56:24;;;;;;;13.57;2.78;;;;;;;22.15;65.90;100970.06;5013584;28;20080;-42
2023/07/30 02:58:50;;;;;;;13.88;2.80;;;;;;;22.14;66.32;100970.13;5014183;28;20638;-43
2023/07/30 03:01:15;;;;;;;13.25;2.67;;;;;;;22.06;65.98;100970.38;5013165;28;20092;-45
2023/07/30 03:03:40;;;;;;;17.90;3.08;;;;;;;21.99;65.81;100973.28;5013696;28;20038;-45
2023/07/30 03:06:06;;;;;;;17.02;2.90;;;;;;;22.07;65.30;100972.13;5013648;28;20038;-42
2023/07/30 03:08:31;;;;;;;11.68;2.78;;;;;;;22.01;65.32;100969.66;5013719;28;20034;-44
2023/07/30 03:10:59;;;;;;;13.90;2.58;;;;;;;22.21;64.13;100972.50;5013432;28;20120;-43
2023/07/30 03:13:26;;;;;;;8.55;2.25;;;;;;;22.14;63.07;100967.47;5013091;28;20038;-48
2023/07/30 03:15:51;;;;;;;13.43;2.20;;;;;;;22.04;63.11;100971.31;5013677;28;20072;-43
2023/07/30 03:18:16;;;;;;;11.35;2.38;;;;;;;21.78;63.80;100975.63;5013247;28;20037;-43
2023/07/30 03:20:41;;;;;;;12.07;2.22;;;;;;;21.75;63.67;100980.19;5012414;28;20037;-44
2023/07/30 03:23:07;;;;;;;13.40;2.53;;;;;;;21.71;63.81;100986.50;5011181;28;20436;-43
2023/07/30 03:25:32;;;;;;;17.80;2.53;;;;;;;21.58;63.02;100979.84;5012796;28;20118;-44
2023/07/30 03:27:57;;;;;;;10.88;2.38;;;;;;;21.58;62.67;100979.84;5013116;28;20037;-47
2023/07/30 03:30:23;;;;;;;10.95;2.20;;;;;;;21.64;62.43;100975.22;5012364;28;20034;-43
2023/07/30 03:32:48;;;;;;;12.07;2.22;;;;;;;21.96;61.53;100976.00;5012362;28;20492;-44
2023/07/30 03:35:14;;;;;;;12.35;2.10;;;;;;;21.91;61.49;100977.91;5012513;28;20128;-45
2023/07/30 03:37:39;;;;;;;9.65;2.40;;;;;;;21.68;59.42;100979.50;5012217;28;20121;-42
2023/07/30 03:40:05;;;;;;;10.18;1.90;;;;;;;21.62;58.67;100974.38;5012326;28;20496;-48
2023/07/30 03:42:30;;;;;;;7.93;1.88;;;;;;;21.76;58.34;100979.28;5011817;28;20550;-44
2023/07/30 03:44:56;;;;;;;16.23;2.28;;;;;;;21.70;58.45;100972.38;5012670;28;20037;-43
2023/07/30 03:47:21;;;;;;;8.32;2.10;;;;;;;21.45;58.32;100977.56;5012276;28;20408;-49
2023/07/30 03:49:46;;;;;;;9.38;2.33;;;;;;;21.68;57.15;100978.63;5012229;28;20065;-44
2023/07/30 03:52:11;;;;;;;9.80;2.08;;;;;;;21.76;56.57;100980.16;5012075;28;20113;-43
2023/07/30 03:54:37;;;;;;;9.13;1.90;;;;;;;21.64;56.10;100977.88;5011907;28;20073;-46
2023/07/30 03:57:02;;;;;;;10.68;2.15;;;;;;;21.32;55.53;100985.91;5012567;28;20029;-43
2023/07/30 03:59:28;;;;;;;6.60;1.90;;;;;;;21.44;55.38;100989.06;5011687;28;20413;-46
2023/07/30 04:01:54;;;;;;;10.00;2.00;;;;;;;21.28;54.24;100987.78;5012056;28;20044;-45
2023/07/30 04:04:19;;;;;;;12.52;2.10;;;;;;;21.25;54.39;100989.63;5012268;28;20559;-45
2023/07/30 04:06:44;;;;;;;9.02;1.92;;;;;;;21.45;53.88;100992.59;5011266;28;20037;-44
2023/07/30 04:09:10;;;;;;;6.25;1.50;;;;;;;21.63;53.26;100984.09;5012147;28;20048;-45
2023/07/30 04:11:36;;;;;;;5.72;1.73;;;;;;;21.30;53.10;100985.94;5011221;28;20037;-47
2023/07/30 04:14:01;;;;;;;7.43;1.55;;;;;;;21.52;52.93;100990.63;5011921;28;20037;-47
2023/07/30 04:16:27;;;;;;;4.43;1.30;;;;;;;21.55;52.43;100995.84;5011616;28;20117;-45
2023/07/30 04:18:52;;;;;;;6.57;1.50;;;;;;;21.42;51.87;100992.66;5012092;28;20432;-44
2023/07/30 04:21:18;;;;;;;5.32;1.50;;;;;;;21.78;51.13;100991.56;5011568;28;20042;-44
2023/07/30 04:23:43;;;;;;;6.45;1.60;;;;;;;21.62;51.24;100987.66;5011323;28;20109;-50
2023/07/30 04:26:08;;;;;;;6.28;1.60;;;;;;;21.64;51.50;100985.84;5011840;28;20041;-47
2023/07/30 04:28:33;;;;;;;9.57;1.80;;;;;;;21.44;51.32;100988.19;5011335;28;20077;-43
2023/07/30 04:30:59;;;;;;;5.90;1.48;;;;;;;21.65;50.81;100990.19;5011815;28;20508;-43
2023/07/30 04:33:26;;;;;;;7.25;1.52;;;;;;;21.69;50.95;100985.69;5011277;28;20038;-44
2023/07/30 04:35:51;;;;;;;7.93;1.77;;;;;;;21.92;50.87;100987.63;5011625;28;20034;-47
2023/07/30 04:38:17;;;;;;;6.60;1.50;;;;;;;21.93;50.54;100989.34;5011968;28;20399;-49
2023/07/30 04:40:42;;;;;;;7.75;1.77;;;;;;;21.96;50.43;100986.63;5011194;28;20053;-44
2023/07/30 04:43:08;;;;;;;8.50;1.63;;;;;;;21.98;50.44;100992.75;5011337;28;20103;-46
2023/07/30 04:45:33;;;;;;;6.32;1.40;;;;;;;22.01;50.58;100990.91;5011008;28;20492;-49
2023/07/30 04:47:59;;;;;;;6.45;1.70;;;;;;;21.64;50.72;100987.63;5011482;28;20041;-46
2023/07/30 04:50:24;;;;;;;6.20;1.45;;;;;;;21.77;51.45;100989.81;5010894;28;20030;-48
2023/07/30 04:52:49;;;;;;;6.22;1.50;;;;;;;22.09;50.53;100994.16;5010834;28;20044;-47
2023/07/30 04:55:15;;;;;;;6.22;1.30;;;;;;;22.29;49.74;100984.69;5011296;28;20030;-45
2023/07/30 04:57:40;;;;;;;7.38;1.50;;;;;;;22.22;50.17;100990.19;5010972;28;20042;-45
2023/07/30 05:00:07;;;;;;;9.10;1.60;;;;;;;22.09;50.35;100996.81;5011087;28;20061;-44
2023/07/30 05:02:32;;;;;;;4.57;1.38;;;;;;;22.19;50.30;100992.09;5010149;28;20061;-47
2023/07/30 05:04:57;;;;;;;4.93;1.50;;;;;;;22.22;49.91;100991.97;5010935;28;20539;-45
2023/07/30 05:07:23;;;;;;;6.93;1.73;;;;;;;22.29;50.08;100997.97;5010688;28;20084;-43
2023/07/30 05:09:48;;;;;;;7.55;1.67;;;;;;;22.25;50.08;100997.19;5010774;28;20480;-45
2023/07/30 05:12:14;;;;;;;5.47;1.50;;;;;;;22.24;50.64;100998.13;5010475;28;20053;-41
2023/07/30 05:14:39;;;;;;;6.85;1.70;;;;;;;22.11;50.99;101004.72;5010023;28;20061;-43
2023/07/30 05:17:05;;;;;;;6.28;1.80;;;;;;;22.24;50.51;101001.66;5011298;28;20168;-44
2023/07/30 05:19:30;;;;;;;6.72;1.65;;;;;;;22.42;50.49;101004.59;5008097;28;20041;-44
2023/07/30 05:21:55;;;;;;;7.20;1.75;;;;;;;22.58;50.23;101005.81;5010537;28;20535;-43
2023/07/30 05:24:21;;;;;;;5.63;1.67;;;;;;;22.51;50.14;101013.13;5010638;28;20040;-42
2023/07/30 05:26:46;;;;;;;7.97;1.80;;;;;;;22.65;50.45;101008.22;5010574;28;20034;-42
2023/07/30 05:29:11;;;;;;;7.00;1.83;;;;;;;22.71;50.66;101009.78;5010832;28;20092;-47
2023/07/30 05:31:37;;;;;;;7.10;1.90;;;;;;;22.81;50.71;101011.25;5025258;28;20046;-44
2023/07/30 05:34:02;;;;;;;7.57;1.83;;;;;;;22.80;51.09;101012.19;5010613;28;20030;-43
2023/07/30 05:36:27;;;;;;;7.60;1.80;;;;;;;22.83;52.19;101011.19;5010287;28;20041;-43
2023/07/30 05:38:53;;;;;;;5.65;1.80;;;;;;;23.04;51.79;101003.34;5010407;28;20077;-45
2023/07/30 05:41:18;;;;;;;10.38;2.10;;;;;;;23.30;51.16;101007.69;5009903;28;20436;-45
2023/07/30 05:43:43;;;;;;;8.85;2.30;;;;;;;23.74;50.55;101006.03;5009786;28;20045;-49
2023/07/30 05:46:08;;;;;;;7.60;1.95;;;;;;;24.00;50.34;101002.34;5010552;28;20563;-43
2023/07/30 05:48:34;;;;;;;14.27;2.25;;;;;;;23.99;50.65;101000.63;5009798;28;20048;-48
2023/07/30 05:50:59;;;;;;;11.60;2.30;;;;;;;24.02;51.39;101000.50;5010023;28;20033;-45
2023/07/30 05:53:25;;;;;;;13.50;2.35;;;;;;;24.15;51.49;101001.72;5009981;28;20191;-45
2023/07/30 05:55:50;;;;;;;10.55;2.50;;;;;;;23.67;53.41;100995.69;5010019;28;20037;-43
2023/07/30 05:58:15;;;;;;;12.68;2.58;;;;;;;23.66;54.64;100997.50;5010296;28;20044;-45
2023/07/30 06:00:41;;;;;;;13.57;2.80;;;;;;;23.84;54.07;100995.91;5009412;28;20096;-46
2023/07/30 06:03:08;;;;;;;16.15;2.75;;;;;;;23.63;55.06;101002.06;5009491;28;20030;-44
2023/07/30 06:05:39;;;;;;;13.95;2.67;;;;;;;23.42;56.78;101006.38;5009468;28;20042;-46
2023/07/30 06:08:04;;;;;;;13.38;3.15;;;;;;;23.43;56.44;101010.75;5010171;28;20065;-41
2023/07/30 06:10:29;;;;;;;13.07;3.00;;;;;;;22.98;58.60;101005.34;5009462;28;20038;-46
2023/07/30 06:12:55;;;;;;;12.23;2.90;;;;;;;23.00;58.26;100998.16;5009486;28;20080;-45
2023/07/30 06:15:20;;;;;;;16.58;3.17;;;;;;;23.02;58.67;100996.31;5009791;28;20073;-46
2023/07/30 06:17:45;;;;;;;17.35;3.15;;;;;;;23.05;58.40;100993.56;5009701;28;20094;-47
2023/07/30 06:20:11;;;;;;;15.52;3.08;;;;;;;22.85;59.27;101001.38;5009794;28;20041;-43
2023/07/30 06:22:36;;;;;;;15.73;3.28;;;;;;;22.90;58.69;101007.41;5009057;28;20045;-45
2023/07/30 06:25:02;;;;;;;16.85;3.45;;;;;;;22.84;59.14;101011.16;5010053;28;20046;-47
2023/07/30 06:27:27;;;;;;;18.88;3.17;;;;;;;22.90;59.11;101007.41;5009575;28;20029;-44
2023/07/30 06:29:53;;;;;;;14.20;3.00;;;;;;;22.61;60.16;101009.25;5009410;28;20064;-46
2023/07/30 06:32:18;;;;;;;14.30;2.78;;;;;;;22.38;60.48;101005.63;5009117;28;20566;-50
2023/07/30 06:34:43;;;;;;;14.10;2.80;;;;;;;22.55;59.59;101009.47;5009014;28;20026;-46
2023/07/30 06:37:09;;;;;;;10.93;2.38;;;;;;;22.48;60.35;101007.06;5009777;28;20040;-44
2023/07/30 06:39:34;;;;;;;16.02;2.85;;;;;;;22.75;59.05;101005.28;5009116;28;20036;-43
2023/07/30 06:41:59;;;;;;;17.17;2.88;;;;;;;22.51;59.92;100997.19;5009310;28;20065;-45
2023/07/30 06:44:25;;;;;;;16.27;2.90;;;;;;;22.76;58.55;101013.19;5009000;28;20033;-44
2023/07/30 06:46:51;;;;;;;16.90;2.80;;;;;;;22.32;60.29;101012.03;5009656;28;20034;-43
2023/07/30 06:49:16;;;;;;;11.68;2.30;;;;;;;22.39;59.10;101005.56;5009713;28;20468;-43
2023/07/30 06:51:41;;;;;;;15.60;2.60;;;;;;;22.72;58.79;101014.22;5007431;28;20030;-43
2023/07/30 06:54:07;;;;;;;12.38;2.78;;;;;;;22.75;57.96;101015.94;5009354;28;20054;-44
2023/07/30 06:56:32;;;;;;;15.90;2.83;;;;;;;22.64;58.99;101008.25;5008985;28;20038;-45
2023/07/30 06:58:57;;;;;;;12.50;2.22;;;;;;;22.43;59.28;101009.00;5009664;28;20117;-48
2023/07/30 07:01:23;;;;;;;14.30;2.70;;;;;;;22.29;60.08;101017.41;5008906;28;20100;-43
2023/07/30 07:03:48;;;;;;;14.45;2.90;;;;;;;22.26;61.40;101013.06;5009508;28;20561;-44
2023/07/30 07:06:14;;;;;;;17.45;3.08;;;;;;;21.66;64.95;101029.09;5009352;28;20041;-51
2023/07/30 07:08:39;;;;;;;12.35;2.63;;;;;;;20.75;68.59;101044.84;5009017;28;20149;-42
2023/07/30 07:11:04;;;;;;;13.50;2.28;;;;;;;20.52;70.80;101034.84;5007758;28;20492;-47
2023/07/30 07:13:30;;;;;;;15.05;2.60;;;;;;;20.19;72.63;101041.78;5008881;28;20516;-46
2023/07/30 07:15:55;;;;;;;9.48;1.92;;;;;;;20.09;72.94;101040.28;5009478;28;20109;-43
2023/07/30 07:18:20;;;;;;;7.95;1.83;;;;;;;20.17;73.60;101040.09;5009814;28;20046;-43
2023/07/30 07:20:46;;;;;;;8.68;1.80;;;;;;;20.17;74.12;101050.69;5008994;28;20413;-44
2023/07/30 07:23:11;;;;;;;6.70;1.95;;;;;;;20.62;73.01;101046.94;5009640;28;20049;-42
2023/07/30 07:25:37;;;;;;;9.73;1.90;;;;;;;20.64;72.59;101052.22;5009891;28;20029;-45
2023/07/30 07:28:03;;;;;;;10.95;2.17;;;;;;;20.26;72.04;101055.75;5010127;28;20029;-43
2023/07/30 07:30:28;;;;;;;10.63;1.63;;;;;;;20.48;70.46;101057.03;5009435;28;20045;-43
2023/07/30 07:32:55;;;;;;;8.05;2.00;;;;;;;20.68;72.34;101064.47;5009380;28;20057;-44
2023/07/30 07:35:20;;;;;;;8.57;1.95;;;;;;;20.69;70.86;101060.91;5009896;28;20082;-43
2023/07/30 07:37:46;;;;;;;9.23;1.73;;;;;;;20.49;70.09;101061.41;5008670;28;20777;-46
2023/07/30 07:40:11;;;;;;;10.63;1.70;;;;;;;21.25;69.26;101066.53;5009806;28;20049;-46
2023/07/30 07:42:38;;;;;;;8.10;1.90;;;;;;;21.82;64.27;101064.00;5011370;28;20049;-43
2023/07/30 07:45:05;;;;;;;8.05;1.60;;;;;;;22.26;65.20;101065.34;5013546;28;20081;-43
2023/07/30 07:47:30;;;;;;;8.02;1.50;;;;;;;23.77;61.29;101064.50;5013042;28;20034;-51
2023/07/30 07:49:56;;;;;;;10.05;1.85;;;;;;;23.81;57.79;101062.59;5012788;28;20158;-45
2023/07/30 07:52:21;;;;;;;8.95;2.00;;;;;;;22.99;60.59;101061.09;5012300;28;20099;-43
2023/07/30 07:54:47;;;;;;;10.15;2.30;;;;;;;22.72;60.35;101062.06;5012400;28;20061;-43
2023/07/30 07:57:12;;;;;;;6.55;1.70;;;;;;;22.95;59.23;101069.25;5012669;28;20131;-44
2023/07/30 07:59:38;;;;;;;10.45;2.13;;;;;;;22.12;63.22;101080.81;5012280;28;20177;-42
2023/07/30 08:02:03;;;;;;;8.82;1.92;;;;;;;22.25;61.61;101077.75;5012123;28;20030;-45
2023/07/30 08:04:29;;;;;;;9.32;2.00;;;;;;;22.25;60.25;101075.09;5011973;28;20070;-45
2023/07/30 08:06:54;;;;;;;9.02;2.00;;;;;;;22.04;60.79;101086.38;5012512;28;20485;-47
2023/07/30 08:09:19;;;;;;;9.52;2.10;;;;;;;22.36;58.93;101085.38;5012384;28;20087;-43
2023/07/30 08:11:45;;;;;;;10.25;2.35;;;;;;;22.31;60.17;101089.09;5010917;28;20037;-47
2023/07/30 08:14:10;;;;;;;7.32;2.00;;;;;;;22.44;57.86;101083.34;5011976;28;20034;-47
2023/07/30 08:16:35;;;;;;;10.13;2.00;;;;;;;22.29;58.91;101085.59;5011764;28;20030;-43
2023/07/30 08:19:01;;;;;;;7.88;1.98;;;;;;;22.21;59.12;101086.72;5011837;28;20030;-47
2023/07/30 08:21:26;;;;;;;11.13;2.30;;;;;;;22.19;59.53;101085.91;5010924;28;20038;-47
2023/07/30 08:23:52;;;;;;;10.18;1.92;;;;;;;22.02;59.44;101089.97;5011921;28;20034;-45
2023/07/30 08:26:17;;;;;;;8.63;2.13;;;;;;;22.46;59.29;101084.16;5012228;28;20029;-44
2023/07/30 08:28:42;;;;;;;9.57;1.95;;;;;;;22.08;59.68;101080.03;5011640;28;20057;-44
2023/07/30 08:31:08;;;;;;;8.27;2.17;;;;;;;22.81;58.69;101071.53;5011487;28;20033;-49
2023/07/30 08:33:33;;;;;;;8.38;1.95;;;;;;;22.67;58.40;101072.84;5011384;28;20034;-43
2023/07/30 08:35:58;;;;;;;11.80;2.30;;;;;;;22.88;57.09;101067.72;5011482;28;20069;-47
2023/07/30 08:38:24;;;;;;;11.00;2.10;;;;;;;23.36;56.60;101076.63;5011396;28;20041;-48
2023/07/30 08:40:50;;;;;;;12.15;2.05;;;;;;;23.47;56.09;101086.06;5011304;28;20484;-43
2023/07/30 08:43:15;;;;;;;9.10;2.38;;;;;;;23.44;55.40;101084.34;5011293;28;20052;-43
2023/07/30 08:45:41;;;;;;;10.57;2.20;;;;;;;23.18;55.13;101089.72;5010877;28;23088;-44
2023/07/30 08:48:07;;;;;;;10.85;2.25;;;;;;;22.65;57.50;101077.31;5011559;28;20093;-43
2023/07/30 08:50:33;;;;;;;11.05;2.35;;;;;;;22.48;57.45;101076.13;5011049;28;20030;-46
2023/07/30 08:53:00;;;;;;;11.25;2.20;;;;;;;22.64;56.67;101088.00;5010883;28;20095;-47
2023/07/30 08:55:28;;;;;;;10.52;2.42;;;;;;;22.80;56.24;101091.06;5009573;28;20068;-44
2023/07/30 08:57:55;;;;;;;8.82;2.00;;;;;;;22.44;58.24;101087.78;5011179;28;20041;-45
2023/07/30 09:00:24;;;;;;;7.30;1.90;;;;;;;22.36;57.96;101093.34;5010846;28;20153;-44
2023/07/30 09:02:54;;;;;;;11.88;2.38;;;;;;;22.07;57.50;101099.56;5010398;28;20064;-43
2023/07/30 09:05:20;;;;;;;12.32;2.33;;;;;;;21.70;58.47;101082.94;5011117;28;20048;-44
2023/07/30 09:07:46;;;;;;;11.70;2.17;;;;;;;21.64;60.09;101085.78;5010681;28;20034;-43
2023/07/30 09:10:13;;;;;;;9.18;2.20;;;;;;;21.94;58.89;101094.63;5010972;28;20037;-42
2023/07/30 09:12:39;;;;;;;10.85;1.98;;;;;;;22.06;57.48;101099.59;5009965;28;20180;-44
2023/07/30 09:15:06;;;;;;;9.63;2.25;;;;;;;22.53;56.26;101098.97;5010874;28;20034;-45
2023/07/30 09:17:32;;;;;;;12.40;2.08;;;;;;;22.20;56.03;101102.72;5010422;28;20042;-43
2023/07/30 09:20:05;;;;;;;11.07;2.10;;;;;;;22.77;56.26;101100.00;5010726;28;20057;-46
2023/07/30 09:22:41;;;;;;;11.15;2.25;;;;;;;22.43;58.09;101096.69;5010011;28;20072;-47
2023/07/30 09:25:08;;;;;;;11.88;2.45;;;;;;;22.42;60.53;101109.09;5010644;28;20036;-45
2023/07/30 09:27:34;;;;;;;12.43;2.30;;;;;;;22.17;57.72;101110.75;5010310;28;20577;-44
2023/07/30 09:30:02;;;;;;;13.48;2.20;;;;;;;22.14;57.01;101108.22;5010650;28;20088;-42
2023/07/30 09:32:29;;;;;;;9.43;1.90;;;;;;;21.89;56.81;101101.88;5009480;28;20095;-42
2023/07/30 09:34:55;;;;;;;8.82;2.10;;;;;;;21.61;56.95;101109.72;5010539;28;20058;-48
2023/07/30 09:37:20;;;;;;;13.57;2.28;;;;;;;21.76;56.51;101117.28;5010895;28;20069;-44
2023/07/30 09:39:48;;;;;;;8.15;2.08;;;;;;;21.94;57.26;101126.47;5010143;28;20061;-44
2023/07/30 09:42:14;;;;;;;9.45;2.13;;;;;;;21.89;57.98;101129.28;5010034;28;20040;-42
2023/07/30 09:44:39;;;;;;;11.63;2.10;;;;;;;22.02;56.73;101135.09;5010207;28;20128;-50
2023/07/30 09:47:09;;;;;;;10.13;2.20;;;;;;;21.77;57.52;101130.47;5010527;28;20038;-42
2023/07/30 09:49:35;;;;;;;12.45;2.28;;;;;;;22.03;57.78;101131.53;5009867;28;20045;-43
2023/07/30 09:52:02;;;;;;;18.30;2.10;;;;;;;22.35;56.54;101143.84;5009853;28;20034;-43
2023/07/30 09:54:29;;;;;;;11.55;2.40;;;;;;;22.69;56.29;101141.03;5009689;28;20041;-44
2023/07/30 09:56:54;;;;;;;12.18;2.30;;;;;;;22.32;56.38;101138.66;5010530;28;20393;-47
2023/07/30 09:59:20;;;;;;;9.88;1.90;;;;;;;23.09;55.85;101133.47;5010009;28;20038;-47
2023/07/30 10:01:49;;;;;;;11.63;1.77;;;;;;;23.28;53.32;101129.28;5009279;28;20034;-45
2023/07/30 10:04:16;;;;;;;9.00;1.67;;;;;;;22.74;51.44;101132.00;5009797;28;20037;-43
2023/07/30 10:06:46;;;;;;;8.43;1.67;;;;;;;22.80;52.86;101141.56;5010028;28;20045;-45
2023/07/30 10:09:13;;;;;;;8.40;1.58;;;;;;;23.64;49.74;101153.72;5010021;28;20034;-44
2023/07/30 10:11:41;;;;;;;11.63;1.98;;;;;;;24.06;48.33;101151.28;5009795;28;20141;-43
2023/07/30 10:14:07;;;;;;;8.15;1.90;;;;;;;24.06;47.74;101147.75;5012268;28;20682;-42
2023/07/30 10:16:32;;;;;;;8.48;1.77;;;;;;;23.84;48.43;101145.91;5011005;28;20061;-43
2023/07/30 10:18:58;;;;;;;9.88;1.92;;;;;;;24.33;47.43;101153.84;5011508;28;20045;-45
2023/07/30 10:21:26;;;;;;;6.50;1.63;;;;;;;24.16;48.46;101149.13;5010627;28;20038;-43
2023/07/30 10:24:00;;;;;;;9.98;1.80;;;;;;;24.21;48.40;101158.69;5011199;28;20096;-42
2023/07/30 10:26:33;;;;;;;8.98;1.80;;;;;;;24.51;48.61;101166.44;5010859;28;20041;-41
2023/07/30 10:29:12;;;;;;;9.05;1.60;;;;;;;24.96;46.08;101158.41;5011131;28;20092;-44
2023/07/30 10:31:41;;;;;;;10.25;1.73;;;;;;;24.84;46.03;101156.19;5009894;28;20041;-48
2023/07/30 10:34:09;;;;;;;10.70;1.83;;;;;;;23.70;47.67;101180.13;5010548;28;20030;-47
2023/07/30 10:36:44;;;;;;;10.52;2.00;;;;;;;24.12;47.76;101167.03;5009565;28;20075;-44
2023/07/30 10:39:17;;;;;;;9.63;2.05;;;;;;;23.95;47.93;101180.09;5010068;28;20033;-47
2023/07/30 10:41:45;;;;;;;9.82;1.95;;;;;;;23.60;50.71;101196.50;5008686;28;20408;-43
2023/07/30 10:44:24;;;;;;;6.53;1.67;;;;;;;24.44;49.55;101188.94;5009543;28;20037;-45
2023/07/30 10:46:50;;;;;;;9.23;1.70;;;;;;;24.50;48.48;101181.56;5009276;28;20034;-44
2023/07/30 10:49:15;;;;;;;9.50;1.80;;;;;;;24.09;48.36;101191.09;5009558;28;20037;-47
2023/07/30 10:51:40;;;;;;;9.57;1.70;;;;;;;24.35;46.81;101190.16;5007479;28;20096;-45
2023/07/30 10:54:09;;;;;;;7.75;1.58;;;;;;;24.80;48.31;101173.28;5008286;28;20052;-48
2023/07/30 10:56:38;;;;;;;7.90;1.88;;;;;;;24.15;48.46;101185.53;5008017;28;20404;-45
2023/07/30 10:59:08;;;;;;;9.32;1.75;;;;;;;23.66;48.51;101186.50;5009144;28;20034;-44
2023/07/30 11:01:41;;;;;;;8.02;1.77;;;;;;;23.86;49.40;101193.75;5008413;28;20065;-47
2023/07/30 11:04:11;;;;;;;9.73;1.90;;;;;;;23.76;50.62;101193.22;5009845;28;20073;-45
2023/07/30 11:06:37;;;;;;;8.60;1.88;;;;;;;23.85;49.30;101203.53;5007978;28;20492;-50
2023/07/30 11:09:03;;;;;;;8.38;1.80;;;;;;;24.18;47.46;101203.22;5009274;28;20069;-45
2023/07/30 11:11:28;;;;;;;6.55;1.70;;;;;;;24.10;47.85;101207.94;5008636;28;20034;-45
2023/07/30 11:13:54;;;;;;;11.35;1.73;;;;;;;24.24;47.14;101200.34;5009351;28;20045;-43